sensor_id;sensor_type;location;lat;lon;timestamp;P1;durP1;ratioP1;P2;durP2;ratioP2
54845;SDS011;53889;50.084;8.646;2023-07-22T00:01:08;8.00;;;5.68;;
54845;SDS011;53889;50.084;8.646;2023-07-22T00:03:35;7.22;;;5.80;;
54845;SDS011;53889;50.084;8.646;2023-07-22T00:06:03;7.93;;;5.57;;
54845;SDS011;53889;50.084;8.646;2023-07-22T00:08:30;7.20;;;5.65;;
54845;SDS011;53889;50.084;8.646;2023-07-22T00:10:59;8.02;;;5.68;;
54845;SDS011;53889;50.084;8.646;2023-07-22T00:13:26;6.72;;;5.35;;
54845;SDS011;53889;50.084;8.646;2023-07-22T00:15:52;7.38;;;5.68;;
54845;SDS011;53889;50.084;8.646;2023-07-22T00:18:19;6.43;;;5.20;;
54845;SDS011;53889;50.084;8.646;2023-07-22T00:20:47;7.13;;;5.40;;
54845;SDS011;53889;50.084;8.646;2023-07-22T00:23:14;7.63;;;4.97;;
54845;SDS011;53889;50.084;8.646;2023-07-22T00:25:42;6.45;;;5.30;;
54845;SDS011;53889;50.084;8.646;2023-07-22T00:28:10;7.85;;;5.57;;
54845;SDS011;53889;50.084;8.646;2023-07-22T00:30:36;7.95;;;5.88;;
54845;SDS011;53889;50.084;8.646;2023-07-22T00:33:03;7.60;;;5.70;;
54845;SDS011;53889;50.084;8.646;2023-07-22T00:35:30;7.45;;;5.75;;
54845;SDS011;53889;50.084;8.646;2023-07-22T00:37:58;7.97;;;5.82;;
54845;SDS011;53889;50.084;8.646;2023-07-22T00:40:26;7.63;;;5.80;;
54845;SDS011;53889;50.084;8.646;2023-07-22T00:42:53;8.88;;;6.22;;
54845;SDS011;53889;50.084;8.646;2023-07-22T00:45:21;7.10;;;5.40;;
54845;SDS011;53889;50.084;8.646;2023-07-22T00:47:48;7.65;;;5.35;;
54845;SDS011;53889;50.084;8.646;2023-07-22T00:50:15;8.32;;;5.60;;
54845;SDS011;53889;50.084;8.646;2023-07-22T00:52:42;7.15;;;5.53;;
54845;SDS011;53889;50.084;8.646;2023-07-22T00:55:09;7.53;;;6.00;;
54845;SDS011;53889;50.084;8.646;2023-07-22T00:57:37;8.30;;;6.30;;
54845;SDS011;53889;50.084;8.646;2023-07-22T01:00:04;7.72;;;6.25;;
54845;SDS011;53889;50.084;8.646;2023-07-22T01:02:35;8.50;;;6.25;;
54845;SDS011;53889;50.084;8.646;2023-07-22T01:05:02;8.55;;;6.20;;
54845;SDS011;53889;50.084;8.646;2023-07-22T01:07:29;7.85;;;5.63;;
54845;SDS011;53889;50.084;8.646;2023-07-22T01:09:56;7.25;;;6.05;;
54845;SDS011;53889;50.084;8.646;2023-07-22T01:12:25;8.80;;;6.22;;
54845;SDS011;53889;50.084;8.646;2023-07-22T01:14:52;9.93;;;5.95;;
54845;SDS011;53889;50.084;8.646;2023-07-22T01:17:19;8.43;;;5.40;;
54845;SDS011;53889;50.084;8.646;2023-07-22T01:19:47;8.10;;;5.85;;
54845;SDS011;53889;50.084;8.646;2023-07-22T01:22:14;8.02;;;6.10;;
54845;SDS011;53889;50.084;8.646;2023-07-22T01:24:44;6.78;;;5.43;;
54845;SDS011;53889;50.084;8.646;2023-07-22T01:27:11;8.68;;;5.80;;
54845;SDS011;53889;50.084;8.646;2023-07-22T01:29:39;8.85;;;6.15;;
54845;SDS011;53889;50.084;8.646;2023-07-22T01:32:06;6.78;;;5.65;;
54845;SDS011;53889;50.084;8.646;2023-07-22T01:34:33;6.90;;;5.05;;
54845;SDS011;53889;50.084;8.646;2023-07-22T01:37:00;7.25;;;5.35;;
54845;SDS011;53889;50.084;8.646;2023-07-22T01:39:28;6.82;;;5.28;;
54845;SDS011;53889;50.084;8.646;2023-07-22T01:41:57;9.02;;;5.50;;
54845;SDS011;53889;50.084;8.646;2023-07-22T01:44:24;9.18;;;6.20;;
54845;SDS011;53889;50.084;8.646;2023-07-22T01:46:50;7.43;;;5.20;;
54845;SDS011;53889;50.084;8.646;2023-07-22T01:49:17;7.13;;;5.32;;
54845;SDS011;53889;50.084;8.646;2023-07-22T01:51:44;6.57;;;5.00;;
54845;SDS011;53889;50.084;8.646;2023-07-22T01:54:11;7.43;;;5.07;;
54845;SDS011;53889;50.084;8.646;2023-07-22T01:56:38;7.05;;;5.70;;
54845;SDS011;53889;50.084;8.646;2023-07-22T01:59:06;8.52;;;5.10;;
54845;SDS011;53889;50.084;8.646;2023-07-22T02:01:34;8.10;;;5.13;;
54845;SDS011;53889;50.084;8.646;2023-07-22T02:04:01;7.00;;;4.80;;
54845;SDS011;53889;50.084;8.646;2023-07-22T02:06:27;6.78;;;5.25;;
54845;SDS011;53889;50.084;8.646;2023-07-22T02:08:54;7.35;;;5.50;;
54845;SDS011;53889;50.084;8.646;2023-07-22T02:11:22;8.55;;;5.07;;
54845;SDS011;53889;50.084;8.646;2023-07-22T02:13:49;9.30;;;5.60;;
54845;SDS011;53889;50.084;8.646;2023-07-22T02:16:17;8.10;;;5.45;;
54845;SDS011;53889;50.084;8.646;2023-07-22T02:18:45;9.00;;;5.57;;
54845;SDS011;53889;50.084;8.646;2023-07-22T02:21:14;6.07;;;4.75;;
54845;SDS011;53889;50.084;8.646;2023-07-22T02:23:41;8.05;;;5.03;;
54845;SDS011;53889;50.084;8.646;2023-07-22T02:26:08;6.80;;;5.10;;
54845;SDS011;53889;50.084;8.646;2023-07-22T02:28:34;6.93;;;5.20;;
54845;SDS011;53889;50.084;8.646;2023-07-22T02:31:03;8.43;;;5.65;;
54845;SDS011;53889;50.084;8.646;2023-07-22T02:33:33;9.65;;;5.72;;
54845;SDS011;53889;50.084;8.646;2023-07-22T02:36:00;6.05;;;4.82;;
54845;SDS011;53889;50.084;8.646;2023-07-22T02:38:28;6.72;;;4.88;;
54845;SDS011;53889;50.084;8.646;2023-07-22T02:41:00;6.60;;;4.85;;
54845;SDS011;53889;50.084;8.646;2023-07-22T02:43:42;8.10;;;4.95;;
54845;SDS011;53889;50.084;8.646;2023-07-22T02:46:09;7.93;;;5.38;;
54845;SDS011;53889;50.084;8.646;2023-07-22T02:48:37;7.38;;;5.75;;
54845;SDS011;53889;50.084;8.646;2023-07-22T02:51:04;8.07;;;5.97;;
54845;SDS011;53889;50.084;8.646;2023-07-22T02:53:32;8.88;;;6.28;;
54845;SDS011;53889;50.084;8.646;2023-07-22T02:55:59;7.63;;;5.70;;
54845;SDS011;53889;50.084;8.646;2023-07-22T02:58:26;9.57;;;5.75;;
54845;SDS011;53889;50.084;8.646;2023-07-22T03:00:53;8.40;;;5.95;;
54845;SDS011;53889;50.084;8.646;2023-07-22T03:03:20;7.38;;;5.50;;
54845;SDS011;53889;50.084;8.646;2023-07-22T03:05:49;7.13;;;5.68;;
54845;SDS011;53889;50.084;8.646;2023-07-22T03:08:17;6.47;;;4.88;;
54845;SDS011;53889;50.084;8.646;2023-07-22T03:10:44;6.20;;;5.22;;
54845;SDS011;53889;50.084;8.646;2023-07-22T03:13:13;6.93;;;5.30;;
54845;SDS011;53889;50.084;8.646;2023-07-22T03:15:40;7.88;;;5.32;;
54845;SDS011;53889;50.084;8.646;2023-07-22T03:18:07;6.93;;;5.60;;
54845;SDS011;53889;50.084;8.646;2023-07-22T03:20:35;8.15;;;5.65;;
54845;SDS011;53889;50.084;8.646;2023-07-22T03:23:03;8.02;;;5.53;;
54845;SDS011;53889;50.084;8.646;2023-07-22T03:25:31;9.20;;;5.63;;
54845;SDS011;53889;50.084;8.646;2023-07-22T03:27:58;9.48;;;5.40;;
54845;SDS011;53889;50.084;8.646;2023-07-22T03:30:28;6.82;;;5.07;;
54845;SDS011;53889;50.084;8.646;2023-07-22T03:32:55;5.90;;;4.95;;
54845;SDS011;53889;50.084;8.646;2023-07-22T03:35:22;7.55;;;4.80;;
54845;SDS011;53889;50.084;8.646;2023-07-22T03:37:49;7.35;;;4.80;;
54845;SDS011;53889;50.084;8.646;2023-07-22T03:40:17;6.97;;;5.20;;
54845;SDS011;53889;50.084;8.646;2023-07-22T03:42:45;6.75;;;5.13;;
54845;SDS011;53889;50.084;8.646;2023-07-22T03:45:12;7.07;;;5.35;;
54845;SDS011;53889;50.084;8.646;2023-07-22T03:47:39;6.05;;;4.55;;
54845;SDS011;53889;50.084;8.646;2023-07-22T03:50:06;6.40;;;4.97;;
54845;SDS011;53889;50.084;8.646;2023-07-22T03:52:34;7.07;;;4.45;;
54845;SDS011;53889;50.084;8.646;2023-07-22T03:55:01;7.57;;;5.47;;
54845;SDS011;53889;50.084;8.646;2023-07-22T03:57:29;7.15;;;5.00;;
54845;SDS011;53889;50.084;8.646;2023-07-22T03:59:56;6.93;;;5.05;;
54845;SDS011;53889;50.084;8.646;2023-07-22T04:02:24;7.10;;;4.63;;
54845;SDS011;53889;50.084;8.646;2023-07-22T04:04:51;6.80;;;4.75;;
54845;SDS011;53889;50.084;8.646;2023-07-22T04:07:19;6.22;;;4.15;;
54845;SDS011;53889;50.084;8.646;2023-07-22T04:09:46;7.50;;;4.38;;
54845;SDS011;53889;50.084;8.646;2023-07-22T04:12:13;5.80;;;4.22;;
54845;SDS011;53889;50.084;8.646;2023-07-22T04:14:42;6.97;;;4.40;;
54845;SDS011;53889;50.084;8.646;2023-07-22T04:17:08;5.88;;;4.30;;
54845;SDS011;53889;50.084;8.646;2023-07-22T04:19:35;7.10;;;4.53;;
54845;SDS011;53889;50.084;8.646;2023-07-22T04:22:02;6.38;;;4.20;;
54845;SDS011;53889;50.084;8.646;2023-07-22T04:24:31;8.02;;;4.78;;
54845;SDS011;53889;50.084;8.646;2023-07-22T04:26:58;7.05;;;4.97;;
54845;SDS011;53889;50.084;8.646;2023-07-22T04:29:25;8.50;;;4.75;;
54845;SDS011;53889;50.084;8.646;2023-07-22T04:31:57;8.93;;;4.80;;
54845;SDS011;53889;50.084;8.646;2023-07-22T04:34:27;6.32;;;4.80;;
54845;SDS011;53889;50.084;8.646;2023-07-22T04:36:55;7.20;;;4.85;;
54845;SDS011;53889;50.084;8.646;2023-07-22T04:39:22;7.07;;;5.18;;
54845;SDS011;53889;50.084;8.646;2023-07-22T04:41:49;8.15;;;4.95;;
54845;SDS011;53889;50.084;8.646;2023-07-22T04:44:16;7.20;;;4.80;;
54845;SDS011;53889;50.084;8.646;2023-07-22T04:46:44;6.80;;;5.50;;
54845;SDS011;53889;50.084;8.646;2023-07-22T04:49:12;8.55;;;5.85;;
54845;SDS011;53889;50.084;8.646;2023-07-22T04:51:42;8.25;;;5.30;;
54845;SDS011;53889;50.084;8.646;2023-07-22T04:54:10;6.97;;;5.35;;
54845;SDS011;53889;50.084;8.646;2023-07-22T04:56:37;8.30;;;5.22;;
54845;SDS011;53889;50.084;8.646;2023-07-22T04:59:03;7.63;;;5.20;;
54845;SDS011;53889;50.084;8.646;2023-07-22T05:01:30;5.85;;;4.60;;
54845;SDS011;53889;50.084;8.646;2023-07-22T05:03:57;6.18;;;4.38;;
54845;SDS011;53889;50.084;8.646;2023-07-22T05:06:28;6.22;;;4.40;;
54845;SDS011;53889;50.084;8.646;2023-07-22T05:08:55;5.90;;;4.10;;
54845;SDS011;53889;50.084;8.646;2023-07-22T05:11:21;5.85;;;4.03;;
54845;SDS011;53889;50.084;8.646;2023-07-22T05:13:48;5.05;;;3.67;;
54845;SDS011;53889;50.084;8.646;2023-07-22T05:16:15;5.88;;;4.25;;
54845;SDS011;53889;50.084;8.646;2023-07-22T05:18:42;7.90;;;4.57;;
54845;SDS011;53889;50.084;8.646;2023-07-22T05:21:09;6.90;;;5.10;;
54845;SDS011;53889;50.084;8.646;2023-07-22T05:23:37;5.82;;;4.70;;
54845;SDS011;53889;50.084;8.646;2023-07-22T05:26:03;7.53;;;4.85;;
54845;SDS011;53889;50.084;8.646;2023-07-22T05:28:30;6.07;;;4.40;;
54845;SDS011;53889;50.084;8.646;2023-07-22T05:30:57;7.10;;;4.80;;
54845;SDS011;53889;50.084;8.646;2023-07-22T05:33:24;6.10;;;4.65;;
54845;SDS011;53889;50.084;8.646;2023-07-22T05:35:50;6.15;;;4.45;;
54845;SDS011;53889;50.084;8.646;2023-07-22T05:38:17;6.45;;;4.78;;
54845;SDS011;53889;50.084;8.646;2023-07-22T05:43:15;5.55;;;4.72;;
54845;SDS011;53889;50.084;8.646;2023-07-22T05:45:42;6.75;;;5.10;;
54845;SDS011;53889;50.084;8.646;2023-07-22T05:48:09;5.47;;;4.60;;
54845;SDS011;53889;50.084;8.646;2023-07-22T05:50:38;5.63;;;4.50;;
54845;SDS011;53889;50.084;8.646;2023-07-22T05:53:04;4.90;;;4.20;;
54845;SDS011;53889;50.084;8.646;2023-07-22T05:55:31;6.43;;;4.78;;
54845;SDS011;53889;50.084;8.646;2023-07-22T05:58:00;7.70;;;4.90;;
54845;SDS011;53889;50.084;8.646;2023-07-22T06:00:30;5.97;;;4.60;;
54845;SDS011;53889;50.084;8.646;2023-07-22T06:02:57;6.07;;;4.20;;
54845;SDS011;53889;50.084;8.646;2023-07-22T06:05:24;5.65;;;4.20;;
54845;SDS011;53889;50.084;8.646;2023-07-22T06:07:51;5.43;;;3.75;;
54845;SDS011;53889;50.084;8.646;2023-07-22T06:10:19;4.95;;;4.00;;
54845;SDS011;53889;50.084;8.646;2023-07-22T06:12:46;5.82;;;3.65;;
54845;SDS011;53889;50.084;8.646;2023-07-22T06:15:14;6.15;;;4.60;;
54845;SDS011;53889;50.084;8.646;2023-07-22T06:17:41;6.45;;;4.43;;
54845;SDS011;53889;50.084;8.646;2023-07-22T06:20:08;6.00;;;4.32;;
54845;SDS011;53889;50.084;8.646;2023-07-22T06:22:35;5.78;;;4.43;;
54845;SDS011;53889;50.084;8.646;2023-07-22T06:25:02;6.75;;;4.63;;
54845;SDS011;53889;50.084;8.646;2023-07-22T06:27:30;5.75;;;4.25;;
54845;SDS011;53889;50.084;8.646;2023-07-22T06:29:56;5.95;;;4.30;;
54845;SDS011;53889;50.084;8.646;2023-07-22T06:32:25;6.05;;;4.10;;
54845;SDS011;53889;50.084;8.646;2023-07-22T06:34:55;5.15;;;3.60;;
54845;SDS011;53889;50.084;8.646;2023-07-22T06:37:22;6.28;;;4.20;;
54845;SDS011;53889;50.084;8.646;2023-07-22T06:39:49;5.05;;;4.03;;
54845;SDS011;53889;50.084;8.646;2023-07-22T06:42:16;6.93;;;3.92;;
54845;SDS011;53889;50.084;8.646;2023-07-22T06:44:43;5.97;;;4.03;;
54845;SDS011;53889;50.084;8.646;2023-07-22T06:47:10;4.50;;;3.47;;
54845;SDS011;53889;50.084;8.646;2023-07-22T06:49:38;5.38;;;4.18;;
54845;SDS011;53889;50.084;8.646;2023-07-22T06:52:06;6.15;;;4.20;;
54845;SDS011;53889;50.084;8.646;2023-07-22T06:54:33;6.68;;;4.05;;
54845;SDS011;53889;50.084;8.646;2023-07-22T06:57:00;6.60;;;4.20;;
54845;SDS011;53889;50.084;8.646;2023-07-22T06:59:27;7.18;;;4.85;;
54845;SDS011;53889;50.084;8.646;2023-07-22T07:01:54;6.18;;;4.70;;
54845;SDS011;53889;50.084;8.646;2023-07-22T07:04:21;7.18;;;4.45;;
54845;SDS011;53889;50.084;8.646;2023-07-22T07:06:49;6.32;;;4.72;;
54845;SDS011;53889;50.084;8.646;2023-07-22T07:09:16;6.53;;;4.45;;
54845;SDS011;53889;50.084;8.646;2023-07-22T07:11:43;7.50;;;4.32;;
54845;SDS011;53889;50.084;8.646;2023-07-22T07:14:10;8.15;;;4.07;;
54845;SDS011;53889;50.084;8.646;2023-07-22T07:16:37;5.40;;;3.80;;
54845;SDS011;53889;50.084;8.646;2023-07-22T07:19:05;5.32;;;3.60;;
54845;SDS011;53889;50.084;8.646;2023-07-22T07:21:31;5.80;;;3.55;;
54845;SDS011;53889;50.084;8.646;2023-07-22T07:24:00;4.57;;;3.30;;
54845;SDS011;53889;50.084;8.646;2023-07-22T07:26:27;6.25;;;3.70;;
54845;SDS011;53889;50.084;8.646;2023-07-22T07:28:54;5.32;;;3.50;;
54845;SDS011;53889;50.084;8.646;2023-07-22T07:31:20;5.18;;;3.70;;
54845;SDS011;53889;50.084;8.646;2023-07-22T07:33:47;5.13;;;3.45;;
54845;SDS011;53889;50.084;8.646;2023-07-22T07:36:14;5.53;;;2.92;;
54845;SDS011;53889;50.084;8.646;2023-07-22T07:38:41;5.95;;;3.60;;
54845;SDS011;53889;50.084;8.646;2023-07-22T07:41:10;5.15;;;3.80;;
54845;SDS011;53889;50.084;8.646;2023-07-22T07:43:37;5.35;;;3.10;;
54845;SDS011;53889;50.084;8.646;2023-07-22T07:46:15;5.97;;;3.90;;
54845;SDS011;53889;50.084;8.646;2023-07-22T07:48:44;5.28;;;3.92;;
54845;SDS011;53889;50.084;8.646;2023-07-22T07:51:12;5.30;;;3.70;;
54845;SDS011;53889;50.084;8.646;2023-07-22T07:53:39;3.85;;;2.80;;
54845;SDS011;53889;50.084;8.646;2023-07-22T07:56:07;5.32;;;3.33;;
54845;SDS011;53889;50.084;8.646;2023-07-22T07:58:36;7.18;;;3.22;;
54845;SDS011;53889;50.084;8.646;2023-07-22T08:01:03;5.00;;;3.22;;
54845;SDS011;53889;50.084;8.646;2023-07-22T08:03:31;5.80;;;2.95;;
54845;SDS011;53889;50.084;8.646;2023-07-22T08:05:58;6.75;;;3.78;;
54845;SDS011;53889;50.084;8.646;2023-07-22T08:08:25;5.15;;;2.78;;
54845;SDS011;53889;50.084;8.646;2023-07-22T08:10:58;5.85;;;3.22;;
54845;SDS011;53889;50.084;8.646;2023-07-22T08:13:30;5.70;;;2.80;;
54845;SDS011;53889;50.084;8.646;2023-07-22T08:15:59;4.05;;;2.80;;
54845;SDS011;53889;50.084;8.646;2023-07-22T08:18:26;3.70;;;2.60;;
54845;SDS011;53889;50.084;8.646;2023-07-22T08:20:52;5.43;;;2.45;;
54845;SDS011;53889;50.084;8.646;2023-07-22T08:23:19;3.45;;;2.33;;
54845;SDS011;53889;50.084;8.646;2023-07-22T08:25:46;4.03;;;2.40;;
54845;SDS011;53889;50.084;8.646;2023-07-22T08:28:13;4.55;;;2.60;;
54845;SDS011;53889;50.084;8.646;2023-07-22T08:30:42;3.67;;;2.35;;
54845;SDS011;53889;50.084;8.646;2023-07-22T08:33:10;6.43;;;2.60;;
54845;SDS011;53889;50.084;8.646;2023-07-22T08:35:38;2.92;;;2.00;;
54845;SDS011;53889;50.084;8.646;2023-07-22T08:38:05;3.55;;;2.10;;
54845;SDS011;53889;50.084;8.646;2023-07-22T08:40:33;24.27;;;4.10;;
54845;SDS011;53889;50.084;8.646;2023-07-22T08:43:01;3.50;;;2.05;;
54845;SDS011;53889;50.084;8.646;2023-07-22T08:45:29;2.50;;;1.90;;
54845;SDS011;53889;50.084;8.646;2023-07-22T08:48:01;3.53;;;2.08;;
54845;SDS011;53889;50.084;8.646;2023-07-22T08:50:33;3.65;;;2.10;;
54845;SDS011;53889;50.084;8.646;2023-07-22T08:53:03;6.13;;;2.80;;
54845;SDS011;53889;50.084;8.646;2023-07-22T08:55:31;3.65;;;2.22;;
54845;SDS011;53889;50.084;8.646;2023-07-22T08:57:59;4.35;;;2.30;;
54845;SDS011;53889;50.084;8.646;2023-07-22T09:00:27;3.92;;;2.67;;
54845;SDS011;53889;50.084;8.646;2023-07-22T09:02:54;5.10;;;2.80;;
54845;SDS011;53889;50.084;8.646;2023-07-22T09:05:23;3.65;;;2.25;;
54845;SDS011;53889;50.084;8.646;2023-07-22T09:07:51;3.67;;;2.40;;
54845;SDS011;53889;50.084;8.646;2023-07-22T09:10:19;4.18;;;2.40;;
54845;SDS011;53889;50.084;8.646;2023-07-22T09:12:47;4.40;;;2.55;;
54845;SDS011;53889;50.084;8.646;2023-07-22T09:15:14;7.28;;;5.90;;
54845;SDS011;53889;50.084;8.646;2023-07-22T09:17:42;4.78;;;4.00;;
54845;SDS011;53889;50.084;8.646;2023-07-22T09:20:11;11.07;;;7.40;;
54845;SDS011;53889;50.084;8.646;2023-07-22T09:22:44;3.50;;;2.50;;
54845;SDS011;53889;50.084;8.646;2023-07-22T09:25:12;7.13;;;5.72;;
54845;SDS011;53889;50.084;8.646;2023-07-22T09:27:40;8.07;;;4.72;;
54845;SDS011;53889;50.084;8.646;2023-07-22T09:30:19;4.78;;;3.78;;
54845;SDS011;53889;50.084;8.646;2023-07-22T09:32:47;5.45;;;2.92;;
54845;SDS011;53889;50.084;8.646;2023-07-22T09:35:14;5.90;;;5.25;;
54845;SDS011;53889;50.084;8.646;2023-07-22T09:37:41;6.03;;;2.47;;
54845;SDS011;53889;50.084;8.646;2023-07-22T09:40:17;5.15;;;2.55;;
54845;SDS011;53889;50.084;8.646;2023-07-22T09:42:45;7.28;;;2.72;;
54845;SDS011;53889;50.084;8.646;2023-07-22T09:45:25;7.97;;;3.25;;
54845;SDS011;53889;50.084;8.646;2023-07-22T09:47:55;5.57;;;3.20;;
54845;SDS011;53889;50.084;8.646;2023-07-22T09:50:23;4.38;;;2.58;;
54845;SDS011;53889;50.084;8.646;2023-07-22T09:52:51;6.22;;;2.53;;
54845;SDS011;53889;50.084;8.646;2023-07-22T09:55:21;4.75;;;2.60;;
54845;SDS011;53889;50.084;8.646;2023-07-22T09:57:50;4.10;;;2.70;;
54845;SDS011;53889;50.084;8.646;2023-07-22T10:00:19;5.70;;;2.80;;
54845;SDS011;53889;50.084;8.646;2023-07-22T10:02:47;4.85;;;2.80;;
54845;SDS011;53889;50.084;8.646;2023-07-22T10:05:18;5.18;;;2.35;;
54845;SDS011;53889;50.084;8.646;2023-07-22T10:07:47;6.30;;;2.42;;
54845;SDS011;53889;50.084;8.646;2023-07-22T10:10:16;7.65;;;2.40;;
54845;SDS011;53889;50.084;8.646;2023-07-22T10:12:45;5.07;;;2.38;;
54845;SDS011;53889;50.084;8.646;2023-07-22T10:15:13;8.00;;;2.92;;
54845;SDS011;53889;50.084;8.646;2023-07-22T10:17:41;6.18;;;2.70;;
54845;SDS011;53889;50.084;8.646;2023-07-22T10:20:10;4.45;;;2.30;;
54845;SDS011;53889;50.084;8.646;2023-07-22T10:22:40;4.50;;;2.45;;
54845;SDS011;53889;50.084;8.646;2023-07-22T10:25:09;4.72;;;2.30;;
54845;SDS011;53889;50.084;8.646;2023-07-22T10:27:37;6.50;;;2.85;;
54845;SDS011;53889;50.084;8.646;2023-07-22T10:30:08;3.85;;;2.70;;
54845;SDS011;53889;50.084;8.646;2023-07-22T10:32:37;3.70;;;2.53;;
54845;SDS011;53889;50.084;8.646;2023-07-22T10:35:07;4.88;;;2.50;;
54845;SDS011;53889;50.084;8.646;2023-07-22T10:37:36;5.45;;;2.67;;
54845;SDS011;53889;50.084;8.646;2023-07-22T10:40:16;4.45;;;2.40;;
54845;SDS011;53889;50.084;8.646;2023-07-22T10:42:51;5.32;;;2.28;;
54845;SDS011;53889;50.084;8.646;2023-07-22T10:45:27;3.17;;;2.25;;
54845;SDS011;53889;50.084;8.646;2023-07-22T10:48:00;7.28;;;3.08;;
54845;SDS011;53889;50.084;8.646;2023-07-22T10:50:39;4.85;;;2.67;;
54845;SDS011;53889;50.084;8.646;2023-07-22T10:53:12;5.05;;;2.67;;
54845;SDS011;53889;50.084;8.646;2023-07-22T10:58:30;5.47;;;3.97;;
54845;SDS011;53889;50.084;8.646;2023-07-22T11:04:05;5.75;;;2.30;;
54845;SDS011;53889;50.084;8.646;2023-07-22T11:06:55;10.13;;;6.07;;
54845;SDS011;53889;50.084;8.646;2023-07-22T11:09:33;3.45;;;2.05;;
54845;SDS011;53889;50.084;8.646;2023-07-22T11:12:04;3.97;;;2.20;;
54845;SDS011;53889;50.084;8.646;2023-07-22T11:14:33;4.65;;;2.10;;
54845;SDS011;53889;50.084;8.646;2023-07-22T11:17:02;5.55;;;2.58;;
54845;SDS011;53889;50.084;8.646;2023-07-22T11:19:31;6.15;;;2.63;;
54845;SDS011;53889;50.084;8.646;2023-07-22T11:21:58;3.55;;;2.25;;
54845;SDS011;53889;50.084;8.646;2023-07-22T11:24:26;5.07;;;2.40;;
54845;SDS011;53889;50.084;8.646;2023-07-22T11:26:53;4.88;;;2.60;;
54845;SDS011;53889;50.084;8.646;2023-07-22T11:29:20;4.43;;;2.40;;
54845;SDS011;53889;50.084;8.646;2023-07-22T11:31:48;6.72;;;2.67;;
54845;SDS011;53889;50.084;8.646;2023-07-22T11:34:18;3.88;;;2.30;;
54845;SDS011;53889;50.084;8.646;2023-07-22T11:36:46;4.00;;;2.33;;
54845;SDS011;53889;50.084;8.646;2023-07-22T11:39:15;4.30;;;2.40;;
54845;SDS011;53889;50.084;8.646;2023-07-22T11:41:43;5.15;;;2.53;;
54845;SDS011;53889;50.084;8.646;2023-07-22T11:44:12;5.20;;;2.40;;
54845;SDS011;53889;50.084;8.646;2023-07-22T11:46:46;4.90;;;2.70;;
54845;SDS011;53889;50.084;8.646;2023-07-22T11:49:22;4.22;;;2.40;;
54845;SDS011;53889;50.084;8.646;2023-07-22T11:51:51;3.83;;;2.20;;
54845;SDS011;53889;50.084;8.646;2023-07-22T11:54:20;6.75;;;2.55;;
54845;SDS011;53889;50.084;8.646;2023-07-22T11:56:50;7.40;;;2.33;;
54845;SDS011;53889;50.084;8.646;2023-07-22T11:59:31;4.32;;;2.50;;
54845;SDS011;53889;50.084;8.646;2023-07-22T12:01:59;4.15;;;2.20;;
54845;SDS011;53889;50.084;8.646;2023-07-22T12:04:28;4.40;;;2.33;;
54845;SDS011;53889;50.084;8.646;2023-07-22T12:06:58;3.38;;;2.20;;
54845;SDS011;53889;50.084;8.646;2023-07-22T12:09:25;5.05;;;2.38;;
54845;SDS011;53889;50.084;8.646;2023-07-22T12:11:56;5.63;;;2.63;;
54845;SDS011;53889;50.084;8.646;2023-07-22T12:14:24;4.68;;;2.58;;
54845;SDS011;53889;50.084;8.646;2023-07-22T12:16:59;4.90;;;2.60;;
54845;SDS011;53889;50.084;8.646;2023-07-22T12:19:27;5.40;;;2.42;;
54845;SDS011;53889;50.084;8.646;2023-07-22T12:21:55;4.03;;;2.35;;
54845;SDS011;53889;50.084;8.646;2023-07-22T12:24:22;4.97;;;2.40;;
54845;SDS011;53889;50.084;8.646;2023-07-22T12:26:49;3.60;;;2.30;;
54845;SDS011;53889;50.084;8.646;2023-07-22T12:29:16;4.82;;;2.65;;
54845;SDS011;53889;50.084;8.646;2023-07-22T12:31:42;4.85;;;2.45;;
54845;SDS011;53889;50.084;8.646;2023-07-22T12:34:09;5.97;;;2.83;;
54845;SDS011;53889;50.084;8.646;2023-07-22T12:36:37;3.42;;;2.40;;
54845;SDS011;53889;50.084;8.646;2023-07-22T12:39:05;6.75;;;2.30;;
54845;SDS011;53889;50.084;8.646;2023-07-22T12:41:32;6.15;;;2.53;;
54845;SDS011;53889;50.084;8.646;2023-07-22T12:43:58;3.40;;;2.20;;
54845;SDS011;53889;50.084;8.646;2023-07-22T12:46:26;5.75;;;2.30;;
54845;SDS011;53889;50.084;8.646;2023-07-22T12:48:53;3.40;;;2.40;;
54845;SDS011;53889;50.084;8.646;2023-07-22T12:51:19;6.05;;;2.65;;
54845;SDS011;53889;50.084;8.646;2023-07-22T12:53:48;5.18;;;2.60;;
54845;SDS011;53889;50.084;8.646;2023-07-22T12:56:14;4.63;;;2.50;;
54845;SDS011;53889;50.084;8.646;2023-07-22T12:58:41;4.88;;;2.50;;
54845;SDS011;53889;50.084;8.646;2023-07-22T13:01:08;4.13;;;2.42;;
54845;SDS011;53889;50.084;8.646;2023-07-22T13:03:35;4.70;;;2.70;;
54845;SDS011;53889;50.084;8.646;2023-07-22T13:06:01;5.22;;;2.50;;
54845;SDS011;53889;50.084;8.646;2023-07-22T13:08:28;4.72;;;2.90;;
54845;SDS011;53889;50.084;8.646;2023-07-22T13:10:56;4.88;;;2.40;;
54845;SDS011;53889;50.084;8.646;2023-07-22T13:13:23;5.75;;;2.30;;
54845;SDS011;53889;50.084;8.646;2023-07-22T13:15:50;3.63;;;2.65;;
54845;SDS011;53889;50.084;8.646;2023-07-22T13:18:18;7.18;;;2.65;;
54845;SDS011;53889;50.084;8.646;2023-07-22T13:20:44;7.03;;;2.80;;
54845;SDS011;53889;50.084;8.646;2023-07-22T13:23:11;8.65;;;3.00;;
54845;SDS011;53889;50.084;8.646;2023-07-22T13:25:38;4.57;;;2.30;;
54845;SDS011;53889;50.084;8.646;2023-07-22T13:28:07;6.50;;;2.15;;
54845;SDS011;53889;50.084;8.646;2023-07-22T13:30:33;4.30;;;2.70;;
54845;SDS011;53889;50.084;8.646;2023-07-22T13:33:00;6.25;;;2.80;;
54845;SDS011;53889;50.084;8.646;2023-07-22T13:35:27;6.13;;;2.83;;
54845;SDS011;53889;50.084;8.646;2023-07-22T13:37:54;5.30;;;2.42;;
54845;SDS011;53889;50.084;8.646;2023-07-22T13:40:21;4.15;;;2.40;;
54845;SDS011;53889;50.084;8.646;2023-07-22T13:42:48;6.13;;;3.28;;
54845;SDS011;53889;50.084;8.646;2023-07-22T13:45:16;5.13;;;2.72;;
54845;SDS011;53889;50.084;8.646;2023-07-22T13:47:43;5.55;;;2.40;;
54845;SDS011;53889;50.084;8.646;2023-07-22T13:50:10;3.60;;;2.47;;
54845;SDS011;53889;50.084;8.646;2023-07-22T13:52:37;6.38;;;2.78;;
54845;SDS011;53889;50.084;8.646;2023-07-22T13:55:05;6.82;;;3.00;;
54845;SDS011;53889;50.084;8.646;2023-07-22T13:57:33;6.03;;;4.47;;
54845;SDS011;53889;50.084;8.646;2023-07-22T14:00:01;4.38;;;3.10;;
54845;SDS011;53889;50.084;8.646;2023-07-22T14:02:38;14.65;;;3.15;;
54845;SDS011;53889;50.084;8.646;2023-07-22T14:05:05;5.68;;;2.65;;
54845;SDS011;53889;50.084;8.646;2023-07-22T14:07:34;5.00;;;2.70;;
54845;SDS011;53889;50.084;8.646;2023-07-22T14:10:02;5.47;;;2.60;;
54845;SDS011;53889;50.084;8.646;2023-07-22T14:12:30;4.00;;;2.80;;
54845;SDS011;53889;50.084;8.646;2023-07-22T14:14:57;6.47;;;4.70;;
54845;SDS011;53889;50.084;8.646;2023-07-22T14:17:24;4.93;;;2.70;;
54845;SDS011;53889;50.084;8.646;2023-07-22T14:19:52;4.88;;;2.50;;
54845;SDS011;53889;50.084;8.646;2023-07-22T14:22:19;5.13;;;2.60;;
54845;SDS011;53889;50.084;8.646;2023-07-22T14:24:46;6.85;;;2.60;;
54845;SDS011;53889;50.084;8.646;2023-07-22T14:27:13;5.82;;;2.90;;
54845;SDS011;53889;50.084;8.646;2023-07-22T14:29:39;3.83;;;2.58;;
54845;SDS011;53889;50.084;8.646;2023-07-22T14:32:11;5.30;;;2.40;;
54845;SDS011;53889;50.084;8.646;2023-07-22T14:34:41;5.75;;;2.80;;
54845;SDS011;53889;50.084;8.646;2023-07-22T14:37:09;4.20;;;2.15;;
54845;SDS011;53889;50.084;8.646;2023-07-22T14:39:36;4.75;;;2.75;;
54845;SDS011;53889;50.084;8.646;2023-07-22T14:42:03;4.00;;;2.10;;
54845;SDS011;53889;50.084;8.646;2023-07-22T14:44:30;3.92;;;2.13;;
54845;SDS011;53889;50.084;8.646;2023-07-22T14:46:56;5.35;;;2.40;;
54845;SDS011;53889;50.084;8.646;2023-07-22T14:49:23;4.05;;;2.50;;
54845;SDS011;53889;50.084;8.646;2023-07-22T14:51:50;3.88;;;2.45;;
54845;SDS011;53889;50.084;8.646;2023-07-22T14:54:19;4.40;;;2.70;;
54845;SDS011;53889;50.084;8.646;2023-07-22T14:56:45;4.88;;;2.45;;
54845;SDS011;53889;50.084;8.646;2023-07-22T14:59:13;3.95;;;2.30;;
54845;SDS011;53889;50.084;8.646;2023-07-22T15:01:41;4.75;;;2.40;;